Flight Track Log - Related Links

Times and Time Zones

All times are in EDT time to prevent confusion due to time zone crossing. See the CHQ5359 flight status page for this flight to view local times or setup timezone preferences in your user account.

Time Position Orientation Groundspeed Altitude Reporting Facility
EDT Latitude Longitude Course Direction KTS MPH feet Rate Location/Type
Sun 01:42:53 PM 39.7500 -86.2667 57° Northeast 173 199 3,300  Level Indianapolis TRACON
Sun 01:43:53 PM 39.8000 -86.2167 38° Northeast 276 318 5,300 2,450 Climbing Indianapolis TRACON
Sun 01:44:53 PM 39.8833 -86.2000 North 281 323 8,200 2,634 Climbing Indianapolis TRACON
Sun 01:45:00 PM 40.1447 -86.1015 46° Northeast  Level FlightAware Approximate
Sun 01:45:56 PM 39.9517 -86.1828 11° North 274 315 10,700  Level Chicago Center
Sun 01:46:00 PM 40.2337 -85.9913 44° Northeast  Level FlightAware Approximate
Sun 01:46:57 PM 40.0361 -86.1578 13° North 308 354 12,300  Level Chicago Center
Sun 01:47:00 PM 40.3224 -85.8803 44° Northeast  Level FlightAware Approximate
Sun 01:47:59 PM 40.1319 -86.1308 12° North 347 399 13,600  Level Chicago Center
Sun 01:49:01 PM 40.2322 -86.1125 North 362 417 15,200 1,500 Climbing Chicago Center
Sun 01:50:03 PM 40.3367 -86.0944 North 375 432 16,700 1,500 Climbing Chicago Center
Sun 01:51:05 PM 40.4644 -86.0703 North 384 442 18,300 1,113 Climbing Chicago Center
Sun 01:52:07 PM 40.5733 -86.0500 North 395 455 19,000 339 Climbing Chicago Center
Sun 01:53:09 PM 40.6794 -86.0353 North 382 440 19,000  Level Chicago Center
Sun 01:54:11 PM 40.7911 -86.0397 358° North 365 420 19,000  Level Chicago Center
Sun 01:55:13 PM 40.8964 -86.0386 360° North 374 430 19,000  Level Chicago Center
Sun 01:56:15 PM 40.9992 -86.0378 360° North 372 428 19,000  Level Chicago Center
Sun 01:57:17 PM 41.1003 -86.0372 360° North 366 421 19,000  Level Chicago Center
Sun 01:58:19 PM 41.1825 -86.0914 334° Northwest 345 397 19,000  Level Chicago Center
Sun 01:59:22 PM 41.2367 -86.1936 305° West 337 388 19,000  Level Chicago Center
Sun 02:00:24 PM 41.2997 -86.3192 304° West 338 389 19,000 -532 Level Chicago Center
Sun 02:01:26 PM 41.3542 -86.4247 305° West 343 395 17,900 -1,065 Descending Chicago Center
Sun 02:02:28 PM 41.4050 -86.5261 304° West 332 382 16,800 -1,161 Descending Chicago Center
Sun 02:03:30 PM 41.4564 -86.6253 305° West 325 374 15,500 -1,597 Descending Chicago Center
Sun 02:04:32 PM 41.5228 -86.7531 305° West 367 422 13,500 -1,645 Descending Chicago Center
Sun 02:05:34 PM 41.6164 -86.7925 343° North 365 420 12,100 -677 Descending Chicago Center
Sun 02:06:36 PM 41.7247 -86.8000 357° North 364 419 12,100  Level Chicago Center
Sun 02:07:38 PM 41.8236 -86.8194 352° North 363 418 12,100 -194 Level Chicago Center
Sun 02:08:40 PM 41.8994 -86.8897 325° Northwest 350 403 11,700 -629 Descending Chicago Center
Sun 02:09:42 PM 41.9492 -87.0136 298° West 350 403 10,800 -823 Descending Chicago Center
Sun 02:10:44 PM 41.9892 -87.1275 295° West 345 397 10,000 -732 Descending Chicago Center
Sun 02:11:45 PM 41.9814 -87.2372 265° West 271 312 9,300 -1,317 Descending Chicago Center
Sun 02:12:47 PM 41.9808 -87.3319 270° West 258 297 7,300 -1,113 Descending Chicago Center
Sun 02:13:49 PM 41.9831 -87.4358 272° West 259 298 7,000 -484 Descending Chicago Center
Sun 02:14:51 PM 41.9831 -87.5300 270° West 258 297 6,300 -968 Descending Chicago Center
Sun 02:15:53 PM 41.9836 -87.6186 271° West 242 278 5,000 -1,210 Descending Chicago Center
Sun 02:16:55 PM 41.9847 -87.7033 271° West 215 247 3,800 -1,210 Descending Chicago Center
Sun 02:17:57 PM 41.9836 -87.7819 269° West 214 246 2,500 -1,161 Descending Chicago Center
Sun 02:18:59 PM 41.9822 -87.8439 268° West 152 175 1,400 -823 Descending Chicago Center
Sun 02:20:01 PM 41.9828 -87.8961 271° West 140 161 800 -581 Descending Chicago Center

Login

Don't have an account? Register now (free) for customized features, flight alerts, and more!